sensor_id;sensor_type;location;lat;lon;timestamp;pressure;altitude;pressure_sealevel;temperature;humidity
25722;BME280;13578;53.450;15.496;2022-10-31T00:00:20;100052.19;;;9.31;100.00
25722;BME280;13578;53.450;15.496;2022-10-31T00:03:21;100046.09;;;9.27;100.00
25722;BME280;13578;53.450;15.496;2022-10-31T00:06:22;100056.06;;;9.28;100.00
25722;BME280;13578;53.450;15.496;2022-10-31T00:09:22;100050.59;;;9.17;100.00
25722;BME280;13578;53.450;15.496;2022-10-31T00:12:23;100057.28;;;9.13;100.00
25722;BME280;13578;53.450;15.496;2022-10-31T00:15:24;100056.31;;;9.14;100.00
25722;BME280;13578;53.450;15.496;2022-10-31T00:18:24;100063.03;;;9.21;100.00
25722;BME280;13578;53.450;15.496;2022-10-31T00:21:26;100054.56;;;9.13;100.00
25722;BME280;13578;53.450;15.496;2022-10-31T00:24:27;100065.38;;;9.14;100.00
25722;BME280;13578;53.450;15.496;2022-10-31T00:27:27;100071.13;;;9.11;100.00
25722;BME280;13578;53.450;15.496;2022-10-31T00:30:28;100069.38;;;9.10;100.00
25722;BME280;13578;53.450;15.496;2022-10-31T00:33:29;100074.97;;;9.09;100.00
25722;BME280;13578;53.450;15.496;2022-10-31T00:36:29;100070.22;;;8.99;100.00
25722;BME280;13578;53.450;15.496;2022-10-31T00:39:30;100073.31;;;8.95;100.00
25722;BME280;13578;53.450;15.496;2022-10-31T00:42:30;100060.00;;;8.90;100.00
25722;BME280;13578;53.450;15.496;2022-10-31T00:45:31;100071.34;;;8.97;100.00
25722;BME280;13578;53.450;15.496;2022-10-31T00:48:32;100070.59;;;8.95;100.00
25722;BME280;13578;53.450;15.496;2022-10-31T00:51:32;100078.78;;;8.95;100.00
25722;BME280;13578;53.450;15.496;2022-10-31T00:54:33;100076.19;;;8.93;100.00
25722;BME280;13578;53.450;15.496;2022-10-31T00:57:33;100075.94;;;8.96;100.00
25722;BME280;13578;53.450;15.496;2022-10-31T01:00:34;100081.66;;;8.93;100.00
25722;BME280;13578;53.450;15.496;2022-10-31T01:03:35;100077.53;;;8.87;100.00
25722;BME280;13578;53.450;15.496;2022-10-31T01:06:35;100070.44;;;8.85;100.00
25722;BME280;13578;53.450;15.496;2022-10-31T01:09:36;100073.66;;;8.79;100.00
25722;BME280;13578;53.450;15.496;2022-10-31T01:12:42;100064.47;;;8.80;100.00
25722;BME280;13578;53.450;15.496;2022-10-31T01:15:43;100059.63;;;8.83;100.00
25722;BME280;13578;53.450;15.496;2022-10-31T01:18:44;100073.69;;;8.90;100.00
25722;BME280;13578;53.450;15.496;2022-10-31T01:21:45;100070.31;;;8.86;100.00
25722;BME280;13578;53.450;15.496;2022-10-31T01:24:46;100069.69;;;8.83;100.00
25722;BME280;13578;53.450;15.496;2022-10-31T01:27:46;100067.31;;;8.78;100.00
25722;BME280;13578;53.450;15.496;2022-10-31T01:30:47;100078.44;;;8.88;100.00
25722;BME280;13578;53.450;15.496;2022-10-31T01:33:48;100071.94;;;8.89;100.00
25722;BME280;13578;53.450;15.496;2022-10-31T01:36:48;100075.19;;;8.94;100.00
25722;BME280;13578;53.450;15.496;2022-10-31T01:39:51;100078.78;;;8.95;100.00
25722;BME280;13578;53.450;15.496;2022-10-31T01:42:51;100067.72;;;8.85;100.00
25722;BME280;13578;53.450;15.496;2022-10-31T01:45:53;100058.00;;;8.81;100.00
25722;BME280;13578;53.450;15.496;2022-10-31T01:48:55;100064.59;;;8.89;100.00
25722;BME280;13578;53.450;15.496;2022-10-31T01:52:01;100042.31;;;8.83;100.00
25722;BME280;13578;53.450;15.496;2022-10-31T01:55:04;100055.41;;;8.90;100.00
25722;BME280;13578;53.450;15.496;2022-10-31T01:58:09;100042.94;;;8.86;100.00
25722;BME280;13578;53.450;15.496;2022-10-31T02:01:13;100042.31;;;8.83;100.00
25722;BME280;13578;53.450;15.496;2022-10-31T02:04:15;100049.53;;;8.84;100.00
25722;BME280;13578;53.450;15.496;2022-10-31T02:07:19;100039.72;;;8.81;100.00
25722;BME280;13578;53.450;15.496;2022-10-31T02:10:22;100043.19;;;8.83;100.00
25722;BME280;13578;53.450;15.496;2022-10-31T02:13:23;100033.38;;;8.81;100.00
25722;BME280;13578;53.450;15.496;2022-10-31T02:16:24;100035.34;;;8.79;100.00
25722;BME280;13578;53.450;15.496;2022-10-31T02:32:56;100041.94;;;8.76;100.00
25722;BME280;13578;53.450;15.496;2022-10-31T02:36:15;100047.91;;;8.70;100.00
25722;BME280;13578;53.450;15.496;2022-10-31T02:39:24;100050.47;;;8.60;100.00
25722;BME280;13578;53.450;15.496;2022-10-31T02:42:38;100048.97;;;8.56;100.00
25722;BME280;13578;53.450;15.496;2022-10-31T02:45:48;100047.16;;;8.43;100.00
25722;BME280;13578;53.450;15.496;2022-10-31T02:48:54;100047.38;;;8.40;100.00
25722;BME280;13578;53.450;15.496;2022-10-31T02:51:57;100045.91;;;8.36;100.00
25722;BME280;13578;53.450;15.496;2022-10-31T02:55:08;100048.50;;;8.38;100.00
25722;BME280;13578;53.450;15.496;2022-10-31T02:58:12;100046.53;;;8.40;100.00
25722;BME280;13578;53.450;15.496;2022-10-31T03:07:54;100055.78;;;8.26;100.00
25722;BME280;13578;53.450;15.496;2022-10-31T03:10:59;100057.09;;;8.20;100.00
25722;BME280;13578;53.450;15.496;2022-10-31T03:14:09;100061.59;;;8.21;100.00
25722;BME280;13578;53.450;15.496;2022-10-31T03:17:22;100054.50;;;8.19;100.00
25722;BME280;13578;53.450;15.496;2022-10-31T03:20:30;100049.91;;;8.19;100.00
25722;BME280;13578;53.450;15.496;2022-10-31T03:23:35;100054.50;;;8.19;100.00
25722;BME280;13578;53.450;15.496;2022-10-31T03:26:44;100067.69;;;8.25;100.00
25722;BME280;13578;53.450;15.496;2022-10-31T03:29:47;100052.53;;;8.21;100.00
25722;BME280;13578;53.450;15.496;2022-10-31T03:32:52;100055.50;;;8.18;100.00
25722;BME280;13578;53.450;15.496;2022-10-31T03:35:56;100064.47;;;8.20;100.00
25722;BME280;13578;53.450;15.496;2022-10-31T03:39:00;100071.13;;;8.16;100.00
25722;BME280;13578;53.450;15.496;2022-10-31T03:42:09;100074.00;;;8.14;100.00
25722;BME280;13578;53.450;15.496;2022-10-31T03:45:14;100067.75;;;8.12;100.00
25722;BME280;13578;53.450;15.496;2022-10-31T03:48:19;100057.41;;;8.04;100.00
25722;BME280;13578;53.450;15.496;2022-10-31T03:54:45;100066.59;;;8.03;100.00
25722;BME280;13578;53.450;15.496;2022-10-31T04:00:54;100059.81;;;8.09;100.00
25722;BME280;13578;53.450;15.496;2022-10-31T04:03:57;100060.44;;;8.13;100.00
25722;BME280;13578;53.450;15.496;2022-10-31T04:06:58;100066.69;;;8.15;100.00
25722;BME280;13578;53.450;15.496;2022-10-31T04:10:02;100072.66;;;8.20;100.00
25722;BME280;13578;53.450;15.496;2022-10-31T04:13:11;100066.44;;;8.18;100.00
25722;BME280;13578;53.450;15.496;2022-10-31T04:16:15;100077.47;;;8.16;100.00
25722;BME280;13578;53.450;15.496;2022-10-31T04:19:16;100071.59;;;8.09;100.00
25722;BME280;13578;53.450;15.496;2022-10-31T04:22:17;100074.56;;;8.06;100.00
25722;BME280;13578;53.450;15.496;2022-10-31T04:25:17;100081.81;;;8.07;100.00
25722;BME280;13578;53.450;15.496;2022-10-31T04:28:18;100096.31;;;8.08;100.00
25722;BME280;13578;53.450;15.496;2022-10-31T04:31:19;100089.75;;;8.10;100.00
25722;BME280;13578;53.450;15.496;2022-10-31T04:34:20;100075.78;;;8.02;100.00
25722;BME280;13578;53.450;15.496;2022-10-31T04:37:20;100077.31;;;8.06;100.00
25722;BME280;13578;53.450;15.496;2022-10-31T04:40:21;100092.25;;;8.14;100.00
25722;BME280;13578;53.450;15.496;2022-10-31T04:43:21;100082.66;;;8.08;100.00
25722;BME280;13578;53.450;15.496;2022-10-31T04:46:22;100085.25;;;8.09;100.00
25722;BME280;13578;53.450;15.496;2022-10-31T04:49:23;100075.56;;;8.05;100.00
25722;BME280;13578;53.450;15.496;2022-10-31T04:52:23;100074.03;;;8.01;100.00
25722;BME280;13578;53.450;15.496;2022-10-31T04:55:24;100088.72;;;8.00;100.00
25722;BME280;13578;53.450;15.496;2022-10-31T04:58:25;100093.81;;;8.05;100.00
25722;BME280;13578;53.450;15.496;2022-10-31T05:01:25;100073.28;;;7.99;100.00
25722;BME280;13578;53.450;15.496;2022-10-31T05:04:26;100095.91;;;8.01;100.00
25722;BME280;13578;53.450;15.496;2022-10-31T05:07:27;100096.78;;;8.02;100.00
25722;BME280;13578;53.450;15.496;2022-10-31T05:10:29;100094.69;;;8.05;100.00
25722;BME280;13578;53.450;15.496;2022-10-31T05:13:31;100082.88;;;8.05;100.00
25722;BME280;13578;53.450;15.496;2022-10-31T05:16:31;100088.47;;;8.03;100.00
25722;BME280;13578;53.450;15.496;2022-10-31T05:19:32;100081.59;;;7.98;100.00
25722;BME280;13578;53.450;15.496;2022-10-31T05:22:33;100095.91;;;8.01;100.00
25722;BME280;13578;53.450;15.496;2022-10-31T05:25:33;100085.69;;;7.92;100.00
25722;BME280;13578;53.450;15.496;2022-10-31T05:28:34;100097.00;;;7.99;100.00
25722;BME280;13578;53.450;15.496;2022-10-31T05:31:34;100096.03;;;8.00;100.00
25722;BME280;13578;53.450;15.496;2022-10-31T05:34:35;100099.41;;;8.03;100.00
25722;BME280;13578;53.450;15.496;2022-10-31T05:37:36;100101.66;;;8.09;100.00
25722;BME280;13578;53.450;15.496;2022-10-31T05:40:36;100097.19;;;8.08;100.00
25722;BME280;13578;53.450;15.496;2022-10-31T05:43:37;100098.94;;;8.09;100.00
25722;BME280;13578;53.450;15.496;2022-10-31T05:46:37;100107.91;;;8.11;100.00
25722;BME280;13578;53.450;15.496;2022-10-31T05:49:38;100105.03;;;8.13;100.00
25722;BME280;13578;53.450;15.496;2022-10-31T05:52:39;100092.66;;;8.20;100.00
25722;BME280;13578;53.450;15.496;2022-10-31T05:55:39;100093.13;;;8.14;100.00
25722;BME280;13578;53.450;15.496;2022-10-31T05:58:43;100104.41;;;8.09;100.00
25722;BME280;13578;53.450;15.496;2022-10-31T06:01:43;100100.03;;;8.07;100.00
25722;BME280;13578;53.450;15.496;2022-10-31T06:04:44;100098.06;;;8.09;100.00
25722;BME280;13578;53.450;15.496;2022-10-31T06:07:44;100110.63;;;8.11;100.00
25722;BME280;13578;53.450;15.496;2022-10-31T06:10:45;100109.22;;;8.06;100.00
25722;BME280;13578;53.450;15.496;2022-10-31T06:13:46;100125.59;;;8.19;100.00
25722;BME280;13578;53.450;15.496;2022-10-31T06:16:46;100120.88;;;8.21;100.00
25722;BME280;13578;53.450;15.496;2022-10-31T06:19:47;100114.44;;;8.22;100.00
25722;BME280;13578;53.450;15.496;2022-10-31T06:22:48;100108.84;;;8.23;100.00
25722;BME280;13578;53.450;15.496;2022-10-31T06:25:49;100120.94;;;8.32;100.00
25722;BME280;13578;53.450;15.496;2022-10-31T06:28:50;100122.81;;;8.32;100.00
25722;BME280;13578;53.450;15.496;2022-10-31T06:31:51;100122.16;;;8.28;100.00
25722;BME280;13578;53.450;15.496;2022-10-31T06:34:52;100126.41;;;8.32;100.00
25722;BME280;13578;53.450;15.496;2022-10-31T06:37:53;100137.13;;;8.35;100.00
25722;BME280;13578;53.450;15.496;2022-10-31T06:40:54;100144.50;;;8.46;100.00
25722;BME280;13578;53.450;15.496;2022-10-31T06:43:55;100140.84;;;8.47;100.00
25722;BME280;13578;53.450;15.496;2022-10-31T06:46:55;100140.56;;;8.50;100.00
25722;BME280;13578;53.450;15.496;2022-10-31T06:49:56;100150.19;;;8.56;100.00
25722;BME280;13578;53.450;15.496;2022-10-31T06:52:59;100150.69;;;8.61;100.00
25722;BME280;13578;53.450;15.496;2022-10-31T06:55:59;100158.91;;;8.61;100.00
25722;BME280;13578;53.450;15.496;2022-10-31T06:59:00;100171.13;;;8.68;100.00
25722;BME280;13578;53.450;15.496;2022-10-31T07:02:00;100161.47;;;8.76;100.00
25722;BME280;13578;53.450;15.496;2022-10-31T07:05:01;100163.63;;;8.83;100.00
25722;BME280;13578;53.450;15.496;2022-10-31T07:08:05;100172.22;;;8.90;100.00
25722;BME280;13578;53.450;15.496;2022-10-31T07:11:06;100164.53;;;8.95;100.00
25722;BME280;13578;53.450;15.496;2022-10-31T07:14:07;100174.53;;;9.08;100.00
25722;BME280;13578;53.450;15.496;2022-10-31T07:17:07;100181.78;;;9.20;100.00
25722;BME280;13578;53.450;15.496;2022-10-31T07:20:08;100174.31;;;9.22;100.00
25722;BME280;13578;53.450;15.496;2022-10-31T07:23:10;100185.56;;;9.30;100.00
25722;BME280;13578;53.450;15.496;2022-10-31T07:26:11;100186.94;;;9.36;100.00
25722;BME280;13578;53.450;15.496;2022-10-31T07:29:11;100195.94;;;9.49;100.00
25722;BME280;13578;53.450;15.496;2022-10-31T07:32:12;100202.31;;;9.61;100.00
25722;BME280;13578;53.450;15.496;2022-10-31T07:35:22;100194.22;;;9.71;100.00
25722;BME280;13578;53.450;15.496;2022-10-31T07:38:23;100197.56;;;9.86;100.00
25722;BME280;13578;53.450;15.496;2022-10-31T07:41:24;100182.38;;;9.93;100.00
25722;BME280;13578;53.450;15.496;2022-10-31T07:44:25;100192.34;;;10.06;100.00
25722;BME280;13578;53.450;15.496;2022-10-31T07:47:25;100196.44;;;10.23;100.00
25722;BME280;13578;53.450;15.496;2022-10-31T07:50:28;100202.03;;;10.44;100.00
25722;BME280;13578;53.450;15.496;2022-10-31T07:53:29;100203.25;;;10.62;100.00
25722;BME280;13578;53.450;15.496;2022-10-31T07:56:30;100209.53;;;10.86;100.00
25722;BME280;13578;53.450;15.496;2022-10-31T07:59:30;100223.56;;;11.04;100.00
25722;BME280;13578;53.450;15.496;2022-10-31T08:02:31;100223.03;;;11.10;100.00
25722;BME280;13578;53.450;15.496;2022-10-31T08:05:32;100221.41;;;11.19;100.00
25722;BME280;13578;53.450;15.496;2022-10-31T08:08:33;100214.28;;;11.16;100.00
25722;BME280;13578;53.450;15.496;2022-10-31T08:11:34;100204.31;;;11.15;100.00
25722;BME280;13578;53.450;15.496;2022-10-31T08:14:35;100207.00;;;11.26;100.00
25722;BME280;13578;53.450;15.496;2022-10-31T08:17:36;100199.69;;;11.37;100.00
25722;BME280;13578;53.450;15.496;2022-10-31T08:20:37;100213.97;;;11.52;100.00
25722;BME280;13578;53.450;15.496;2022-10-31T08:23:38;100214.44;;;11.57;100.00
25722;BME280;13578;53.450;15.496;2022-10-31T08:26:38;100207.22;;;11.56;100.00
25722;BME280;13578;53.450;15.496;2022-10-31T08:29:39;100217.25;;;11.67;100.00
25722;BME280;13578;53.450;15.496;2022-10-31T08:32:39;100205.72;;;11.73;100.00
25722;BME280;13578;53.450;15.496;2022-10-31T08:35:40;100202.31;;;11.90;100.00
25722;BME280;13578;53.450;15.496;2022-10-31T08:38:41;100212.72;;;12.08;100.00
25722;BME280;13578;53.450;15.496;2022-10-31T08:41:41;100228.84;;;12.22;100.00
25722;BME280;13578;53.450;15.496;2022-10-31T08:44:42;100215.41;;;12.29;100.00
25722;BME280;13578;53.450;15.496;2022-10-31T08:47:42;100209.94;;;12.39;100.00
25722;BME280;13578;53.450;15.496;2022-10-31T08:50:44;100212.88;;;12.47;100.00
25722;BME280;13578;53.450;15.496;2022-10-31T08:53:45;100214.03;;;12.54;100.00
25722;BME280;13578;53.450;15.496;2022-10-31T08:56:46;100216.06;;;12.62;100.00
25722;BME280;13578;53.450;15.496;2022-10-31T08:59:46;100208.97;;;12.60;100.00
25722;BME280;13578;53.450;15.496;2022-10-31T09:02:55;100229.41;;;12.67;100.00
25722;BME280;13578;53.450;15.496;2022-10-31T09:06:01;100223.91;;;12.67;100.00
25722;BME280;13578;53.450;15.496;2022-10-31T09:09:03;100229.28;;;12.78;100.00
25722;BME280;13578;53.450;15.496;2022-10-31T09:12:03;100230.03;;;12.90;100.00
25722;BME280;13578;53.450;15.496;2022-10-31T09:15:04;100244.56;;;13.02;100.00
25722;BME280;13578;53.450;15.496;2022-10-31T09:18:07;100246.28;;;13.03;100.00
25722;BME280;13578;53.450;15.496;2022-10-31T09:21:08;100237.88;;;13.14;100.00
25722;BME280;13578;53.450;15.496;2022-10-31T09:24:09;100235.69;;;13.18;100.00
25722;BME280;13578;53.450;15.496;2022-10-31T09:27:09;100239.50;;;13.17;100.00
25722;BME280;13578;53.450;15.496;2022-10-31T09:30:10;100245.28;;;13.24;100.00
25722;BME280;13578;53.450;15.496;2022-10-31T09:33:12;100237.31;;;13.21;100.00
25722;BME280;13578;53.450;15.496;2022-10-31T09:36:13;100241.25;;;13.28;100.00
25722;BME280;13578;53.450;15.496;2022-10-31T09:39:13;100247.47;;;13.30;100.00
25722;BME280;13578;53.450;15.496;2022-10-31T09:42:48;100256.38;;;13.43;100.00
25722;BME280;13578;53.450;15.496;2022-10-31T09:46:12;100247.03;;;13.44;100.00
25722;BME280;13578;53.450;15.496;2022-10-31T09:49:24;100239.06;;;13.51;100.00
25722;BME280;13578;53.450;15.496;2022-10-31T09:52:33;100240.97;;;13.60;100.00
25722;BME280;13578;53.450;15.496;2022-10-31T09:55:40;100234.69;;;13.68;100.00
25722;BME280;13578;53.450;15.496;2022-10-31T09:58:46;100242.94;;;13.78;100.00
25722;BME280;13578;53.450;15.496;2022-10-31T10:02:04;100250.34;;;13.87;100.00
25722;BME280;13578;53.450;15.496;2022-10-31T10:05:11;100239.59;;;13.94;100.00
25722;BME280;13578;53.450;15.496;2022-10-31T10:08:18;100237.22;;;13.99;100.00
25722;BME280;13578;53.450;15.496;2022-10-31T10:18:52;100246.44;;;14.27;100.00
25722;BME280;13578;53.450;15.496;2022-10-31T10:25:15;100253.75;;;14.46;100.00
25722;BME280;13578;53.450;15.496;2022-10-31T10:28:33;100249.66;;;14.51;100.00
25722;BME280;13578;53.450;15.496;2022-10-31T10:31:41;100254.97;;;14.62;100.00
25722;BME280;13578;53.450;15.496;2022-10-31T10:34:57;100261.13;;;14.56;100.00
25722;BME280;13578;53.450;15.496;2022-10-31T10:41:17;100265.47;;;14.58;100.00
25722;BME280;13578;53.450;15.496;2022-10-31T10:44:20;100262.78;;;14.76;100.00
25722;BME280;13578;53.450;15.496;2022-10-31T10:47:21;100262.31;;;14.81;100.00
25722;BME280;13578;53.450;15.496;2022-10-31T10:50:48;100267.09;;;14.89;100.00
25722;BME280;13578;53.450;15.496;2022-10-31T10:54:03;100259.81;;;14.88;100.00
25722;BME280;13578;53.450;15.496;2022-10-31T10:58:17;100277.97;;;14.90;100.00
25722;BME280;13578;53.450;15.496;2022-10-31T11:00:55;100263.84;;;14.93;100.00
25722;BME280;13578;53.450;15.496;2022-10-31T11:03:56;100256.25;;;14.96;100.00
25722;BME280;13578;53.450;15.496;2022-10-31T11:07:04;100252.63;;;14.95;100.00
25722;BME280;13578;53.450;15.496;2022-10-31T11:10:12;100256.41;;;14.94;100.00
25722;BME280;13578;53.450;15.496;2022-10-31T11:13:23;100266.13;;;14.98;100.00
25722;BME280;13578;53.450;15.496;2022-10-31T11:19:27;100260.31;;;15.01;100.00
25722;BME280;13578;53.450;15.496;2022-10-31T11:22:28;100263.91;;;15.02;100.00
25722;BME280;13578;53.450;15.496;2022-10-31T11:25:29;100265.03;;;15.09;100.00
25722;BME280;13578;53.450;15.496;2022-10-31T11:28:32;100280.38;;;15.03;100.00
25722;BME280;13578;53.450;15.496;2022-10-31T11:31:35;100271.53;;;15.00;100.00
25722;BME280;13578;53.450;15.496;2022-10-31T11:34:42;100261.13;;;14.84;100.00
25722;BME280;13578;53.450;15.496;2022-10-31T11:37:47;100274.34;;;14.90;100.00
25722;BME280;13578;53.450;15.496;2022-10-31T11:44:16;100262.47;;;14.80;100.00
25722;BME280;13578;53.450;15.496;2022-10-31T11:47:21;100266.25;;;14.79;100.00
25722;BME280;13578;53.450;15.496;2022-10-31T11:50:47;100266.25;;;14.79;100.00
25722;BME280;13578;53.450;15.496;2022-10-31T11:53:52;100265.47;;;14.68;100.00
25722;BME280;13578;53.450;15.496;2022-10-31T11:56:54;100279.13;;;14.70;100.00
25722;BME280;13578;53.450;15.496;2022-10-31T12:00:17;100267.13;;;14.41;100.00
25722;BME280;13578;53.450;15.496;2022-10-31T12:06:28;100264.16;;;14.25;100.00
25722;BME280;13578;53.450;15.496;2022-10-31T12:09:33;100261.94;;;14.28;100.00
25722;BME280;13578;53.450;15.496;2022-10-31T12:13:11;100268.78;;;14.34;100.00
25722;BME280;13578;53.450;15.496;2022-10-31T12:26:08;100260.41;;;14.16;100.00
25722;BME280;13578;53.450;15.496;2022-10-31T12:39:33;100257.38;;;14.19;100.00
25722;BME280;13578;53.450;15.496;2022-10-31T12:42:54;100267.38;;;14.20;100.00
25722;BME280;13578;53.450;15.496;2022-10-31T12:45:59;100247.94;;;14.12;100.00
25722;BME280;13578;53.450;15.496;2022-10-31T12:59:30;100248.16;;;14.28;100.00
25722;BME280;13578;53.450;15.496;2022-10-31T13:06:07;100238.59;;;14.23;100.00
25722;BME280;13578;53.450;15.496;2022-10-31T13:09:13;100246.56;;;14.26;100.00
25722;BME280;13578;53.450;15.496;2022-10-31T13:12:18;100238.28;;;14.26;100.00
25722;BME280;13578;53.450;15.496;2022-10-31T13:15:24;100248.31;;;14.27;100.00
25722;BME280;13578;53.450;15.496;2022-10-31T13:18:40;100237.59;;;14.24;100.00
25722;BME280;13578;53.450;15.496;2022-10-31T13:25:25;100234.16;;;14.12;100.00
25722;BME280;13578;53.450;15.496;2022-10-31T13:31:45;100249.09;;;14.19;100.00
25722;BME280;13578;53.450;15.496;2022-10-31T13:34:53;100256.34;;;14.20;100.00
25722;BME280;13578;53.450;15.496;2022-10-31T13:44:37;100237.16;;;14.19;100.00
25722;BME280;13578;53.450;15.496;2022-10-31T13:47:41;100241.97;;;14.17;100.00
25722;BME280;13578;53.450;15.496;2022-10-31T13:50:55;100244.00;;;14.14;100.00
25722;BME280;13578;53.450;15.496;2022-10-31T13:54:05;100239.06;;;14.18;100.00
25722;BME280;13578;53.450;15.496;2022-10-31T14:00:25;100234.97;;;14.22;100.00
25722;BME280;13578;53.450;15.496;2022-10-31T14:03:26;100241.66;;;14.20;100.00
25722;BME280;13578;53.450;15.496;2022-10-31T14:10:02;100247.00;;;14.21;100.00
25722;BME280;13578;53.450;15.496;2022-10-31T14:13:18;100244.41;;;14.20;100.00
25722;BME280;13578;53.450;15.496;2022-10-31T14:16:25;100237.16;;;14.19;100.00
25722;BME280;13578;53.450;15.496;2022-10-31T14:19:27;100240.66;;;14.21;100.00
25722;BME280;13578;53.450;15.496;2022-10-31T14:22:32;100240.22;;;14.16;100.00
25722;BME280;13578;53.450;15.496;2022-10-31T14:25:35;100225.56;;;14.15;100.00
25722;BME280;13578;53.450;15.496;2022-10-31T14:28:36;100222.38;;;14.10;100.00
25722;BME280;13578;53.450;15.496;2022-10-31T14:31:42;100225.13;;;14.10;100.00
25722;BME280;13578;53.450;15.496;2022-10-31T14:48:03;100218.94;;;13.98;100.00
25722;BME280;13578;53.450;15.496;2022-10-31T14:51:14;100218.94;;;13.98;100.00
25722;BME280;13578;53.450;15.496;2022-10-31T14:54:25;100222.41;;;14.00;100.00
25722;BME280;13578;53.450;15.496;2022-10-31T14:57:32;100212.69;;;13.96;100.00
25722;BME280;13578;53.450;15.496;2022-10-31T15:00:35;100210.81;;;13.96;100.00
25722;BME280;13578;53.450;15.496;2022-10-31T15:03:39;100207.59;;;14.01;100.00
25722;BME280;13578;53.450;15.496;2022-10-31T15:06:43;100208.78;;;13.98;100.00
25722;BME280;13578;53.450;15.496;2022-10-31T15:09:58;100210.09;;;13.94;100.00
25722;BME280;13578;53.450;15.496;2022-10-31T15:13:10;100216.63;;;13.93;100.00
25722;BME280;13578;53.450;15.496;2022-10-31T15:16:13;100215.44;;;13.96;100.00
25722;BME280;13578;53.450;15.496;2022-10-31T15:19:20;100225.91;;;13.92;100.00
25722;BME280;13578;53.450;15.496;2022-10-31T15:22:23;100218.97;;;13.88;100.00
25722;BME280;13578;53.450;15.496;2022-10-31T15:25:30;100218.13;;;13.88;100.00
25722;BME280;13578;53.450;15.496;2022-10-31T15:28:32;100213.31;;;13.80;100.00
25722;BME280;13578;53.450;15.496;2022-10-31T15:31:33;100216.25;;;13.78;100.00
25722;BME280;13578;53.450;15.496;2022-10-31T15:34:44;100209.72;;;13.79;100.00
25722;BME280;13578;53.450;15.496;2022-10-31T15:37:44;100221.59;;;13.80;100.00
25722;BME280;13578;53.450;15.496;2022-10-31T15:40:55;100224.50;;;13.78;100.00
25722;BME280;13578;53.450;15.496;2022-10-31T15:44:01;100225.94;;;13.82;100.00
25722;BME280;13578;53.450;15.496;2022-10-31T15:47:05;100226.53;;;13.76;100.00
25722;BME280;13578;53.450;15.496;2022-10-31T15:50:20;100226.38;;;13.78;100.00
25722;BME280;13578;53.450;15.496;2022-10-31T15:53:33;100221.31;;;13.73;100.00
25722;BME280;13578;53.450;15.496;2022-10-31T15:56:35;100231.66;;;13.71;100.00
25722;BME280;13578;53.450;15.496;2022-10-31T15:59:36;100230.63;;;13.72;100.00
25722;BME280;13578;53.450;15.496;2022-10-31T16:02:37;100225.41;;;13.69;100.00
25722;BME280;13578;53.450;15.496;2022-10-31T16:05:46;100226.25;;;13.70;100.00
25722;BME280;13578;53.450;15.496;2022-10-31T16:08:49;100221.22;;;13.65;100.00
25722;BME280;13578;53.450;15.496;2022-10-31T16:11:50;100229.91;;;13.70;100.00
25722;BME280;13578;53.450;15.496;2022-10-31T16:14:53;100227.16;;;13.70;100.00
25722;BME280;13578;53.450;15.496;2022-10-31T16:17:54;100232.34;;;13.73;100.00
25722;BME280;13578;53.450;15.496;2022-10-31T16:20:55;100230.34;;;13.65;100.00
25722;BME280;13578;53.450;15.496;2022-10-31T16:27:25;100235.88;;;13.56;100.00
25722;BME280;13578;53.450;15.496;2022-10-31T16:30:38;100238.47;;;13.57;100.00
25722;BME280;13578;53.450;15.496;2022-10-31T16:33:39;100243.72;;;13.60;100.00
25722;BME280;13578;53.450;15.496;2022-10-31T16:36:41;100246.03;;;13.65;100.00
25722;BME280;13578;53.450;15.496;2022-10-31T16:39:42;100247.75;;;13.66;100.00
25722;BME280;13578;53.450;15.496;2022-10-31T16:42:43;100252.84;;;13.61;100.00
25722;BME280;13578;53.450;15.496;2022-10-31T16:45:46;100250.41;;;13.58;100.00
25722;BME280;13578;53.450;15.496;2022-10-31T16:48:47;100251.53;;;13.55;100.00
25722;BME280;13578;53.450;15.496;2022-10-31T16:51:48;100242.00;;;13.49;100.00
25722;BME280;13578;53.450;15.496;2022-10-31T16:54:48;100235.88;;;13.56;100.00
25722;BME280;13578;53.450;15.496;2022-10-31T16:57:51;100240.66;;;13.54;100.00
25722;BME280;13578;53.450;15.496;2022-10-31T17:00:53;100235.16;;;13.44;100.00
25722;BME280;13578;53.450;15.496;2022-10-31T17:03:54;100232.69;;;13.50;100.00
25722;BME280;13578;53.450;15.496;2022-10-31T17:06:54;100228.78;;;13.43;100.00
25722;BME280;13578;53.450;15.496;2022-10-31T17:09:55;100234.13;;;13.35;100.00
25722;BME280;13578;53.450;15.496;2022-10-31T17:12:56;100235.72;;;13.38;100.00
25722;BME280;13578;53.450;15.496;2022-10-31T17:16:02;100232.41;;;13.44;100.00
25722;BME280;13578;53.450;15.496;2022-10-31T17:19:04;100235.91;;;13.46;100.00
25722;BME280;13578;53.450;15.496;2022-10-31T17:22:04;100244.75;;;13.49;100.00
25722;BME280;13578;53.450;15.496;2022-10-31T17:25:07;100224.72;;;13.47;100.00
25722;BME280;13578;53.450;15.496;2022-10-31T17:28:12;100229.22;;;13.39;100.00
25722;BME280;13578;53.450;15.496;2022-10-31T17:31:26;100238.06;;;13.42;100.00
25722;BME280;13578;53.450;15.496;2022-10-31T17:34:27;100233.41;;;13.33;100.00
25722;BME280;13578;53.450;15.496;2022-10-31T17:37:28;100225.28;;;13.31;100.00
25722;BME280;13578;53.450;15.496;2022-10-31T17:40:28;100225.72;;;13.37;100.00
25722;BME280;13578;53.450;15.496;2022-10-31T17:43:29;100226.56;;;13.37;100.00